Pu Dun — XUUB9 — position and weather

sailwx.info

Track history (hours):
 
Tides and Currents Weather Stations Pressure Air Temp Water Temp Dewpoint Dewpoint Depression Visibility Wind Speed Wind Dir Waves Ship Positions

Pu Dun

Last reported at 2014-Oct-06 21:29 UTC. Time now 2014-Oct-22 04:58 UTC.
Position N 35°19' E 139°43'.
Warning: this ship's position is 15 days out of date.

Length 75 m; draft 5.2 m.

Type: Cargo ship. MMSI: 515213000.

Date/timePositionNaut miles runAvg speedWind from/ knotsBaromVisibWave heightAir tempDewpointWater temp
2014-Oct-06 21:29N 35°19' E 139°43'9 9.9
2014-Oct-06 20:33N 35°27' E 139°47'1 1.1
2014-Oct-06 19:25N 35°28' E 139°48'0 0.0
2014-Oct-06 18:13N 35°29' E 139°48'0 0.0
2014-Oct-06 15:04N 35°29' E 139°48'0 0.0
2014-Oct-06 12:13N 35°28' E 139°48'0 0.0
2014-Oct-06 07:25N 35°29' E 139°48'0 0.0
2014-Oct-06 05:25N 35°29' E 139°48'0 0.1
2014-Oct-06 03:22N 35°29' E 139°48'0 0.0
2014-Oct-06 02:33N 35°29' E 139°48'0 0.1
2014-Oct-06 01:33N 35°29' E 139°48'0 0.1
2014-Oct-06 00:33N 35°29' E 139°48'0 0.0
2014-Oct-05 19:31N 35°29' E 139°48'0 0.0
2014-Oct-05 18:27N 35°29' E 139°48'0 0.0
2014-Oct-05 17:30N 35°29' E 139°48'0 0.0
2014-Oct-04 08:30N 35°29' E 139°48'3 2.8
2014-Oct-04 07:27N 35°31' E 139°45'0 0.0
2014-Oct-04 06:33N 35°31' E 139°45'0 0.0
2014-Oct-04 05:33N 35°31' E 139°45'0 0.0
2014-Oct-04 04:33N 35°31' E 139°45'0 0.0
2014-Oct-04 03:21N 35°31' E 139°45'0 0.0
2014-Oct-04 02:33N 35°31' E 139°45'0 0.0
2014-Oct-04 01:33N 35°31' E 139°45'0 0.0
2014-Oct-04 00:30N 35°31' E 139°45'0 0.0
2014-Oct-03 23:33N 35°31' E 139°45'0 0.0
2014-Oct-03 22:33N 35°31' E 139°45'0 0.0
2014-Oct-03 21:33N 35°31' E 139°45'0 0.0
2014-Oct-03 20:33N 35°31' E 139°45'0 0.0
2014-Oct-03 19:30N 35°31' E 139°45'0 0.0
2014-Oct-03 18:33N 35°31' E 139°45'0 0.0
2014-Oct-03 17:33N 35°31' E 139°45'0 0.0
2014-Oct-03 16:33N 35°31' E 139°45'0 0.0
2014-Oct-03 15:27N 35°31' E 139°45'0 0.0
2014-Oct-03 14:33N 35°31' E 139°45'0 0.0
2014-Oct-03 13:21N 35°31' E 139°45'0 0.0
2014-Oct-03 12:21N 35°31' E 139°45'0 0.0
2014-Oct-03 11:33N 35°31' E 139°45'0 0.0
2014-Oct-03 10:30N 35°31' E 139°45'0 0.0
2014-Oct-03 09:21N 35°31' E 139°45'0 0.0
2014-Oct-03 08:30N 35°31' E 139°45'0 0.0
2014-Oct-03 07:27N 35°31' E 139°45'0 0.0
2014-Oct-03 06:33N 35°31' E 139°45'0 0.0
2014-Oct-03 05:30N 35°31' E 139°45'0 0.0
2014-Oct-03 04:33N 35°31' E 139°45'0 0.0
2014-Oct-03 03:33N 35°31' E 139°45'0 0.0
2014-Oct-03 02:33N 35°31' E 139°45'0 0.0
2014-Oct-03 01:33N 35°31' E 139°45'0 0.0
2014-Oct-03 00:30N 35°31' E 139°45'0 0.0
2014-Oct-02 23:30N 35°31' E 139°45'0 0.1
2014-Oct-02 22:30N 35°31' E 139°45'4 3.7
2014-Oct-02 21:33N 35°28' E 139°42'1 1.3
2014-Oct-02 20:33N 35°27' E 139°42'0 0.0
2014-Oct-02 19:33N 35°27' E 139°42'0 0.0
2014-Oct-02 18:30N 35°27' E 139°42'0 0.0
2014-Oct-02 17:33N 35°27' E 139°42'0 0.0
2014-Oct-02 16:33N 35°27' E 139°42'0 0.0
2014-Oct-02 15:33N 35°27' E 139°42'0 0.0
2014-Oct-02 14:33N 35°27' E 139°42'0 0.0
2014-Oct-02 13:33N 35°27' E 139°42'0 0.0
2014-Oct-02 12:33N 35°27' E 139°42'0 0.0
2014-Oct-02 11:30N 35°27' E 139°42'0 0.0
2014-Oct-02 10:30N 35°27' E 139°42'0 0.1
2014-Oct-02 09:33N 35°27' E 139°42'  
2014-Sep-30 02:07N 35°25' E 139°47'610.1
2014-Sep-30 01:33N 35°19' E 139°44'  
Track history (hours):
 
Tides and Currents Weather Stations Pressure Air Temp Water Temp Dewpoint Dewpoint Depression Visibility Wind Speed Wind Dir Waves Ship Positions

Pu Dun

Last reported at 2014-Oct-06 21:29 UTC. Time now 2014-Oct-22 04:58 UTC.
Position N 35°19' E 139°43'.
Warning: this ship's position is 15 days out of date.

Length 75 m; draft 5.2 m.

Type: Cargo ship. MMSI: 515213000.

Date/timePositionNaut miles runAvg speedWind from/ knotsBaromVisibWave heightAir tempDewpointWater temp
2014-Oct-06 21:29N 35°19' E 139°43'9 9.9
2014-Oct-06 20:33N 35°27' E 139°47'1 1.1
2014-Oct-06 19:25N 35°28' E 139°48'0 0.0
2014-Oct-06 18:13N 35°29' E 139°48'0 0.0
2014-Oct-06 15:04N 35°29' E 139°48'0 0.0
2014-Oct-06 12:13N 35°28' E 139°48'0 0.0
2014-Oct-06 07:25N 35°29' E 139°48'0 0.0
2014-Oct-06 05:25N 35°29' E 139°48'0 0.1
2014-Oct-06 03:22N 35°29' E 139°48'0 0.0
2014-Oct-06 02:33N 35°29' E 139°48'0 0.1
2014-Oct-06 01:33N 35°29' E 139°48'0 0.1
2014-Oct-06 00:33N 35°29' E 139°48'0 0.0
2014-Oct-05 19:31N 35°29' E 139°48'0 0.0
2014-Oct-05 18:27N 35°29' E 139°48'0 0.0
2014-Oct-05 17:30N 35°29' E 139°48'0 0.0
2014-Oct-04 08:30N 35°29' E 139°48'3 2.8
2014-Oct-04 07:27N 35°31' E 139°45'0 0.0
2014-Oct-04 06:33N 35°31' E 139°45'0 0.0
2014-Oct-04 05:33N 35°31' E 139°45'0 0.0
2014-Oct-04 04:33N 35°31' E 139°45'0 0.0
2014-Oct-04 03:21N 35°31' E 139°45'0 0.0
2014-Oct-04 02:33N 35°31' E 139°45'0 0.0
2014-Oct-04 01:33N 35°31' E 139°45'0 0.0
2014-Oct-04 00:30N 35°31' E 139°45'0 0.0
2014-Oct-03 23:33N 35°31' E 139°45'0 0.0
2014-Oct-03 22:33N 35°31' E 139°45'0 0.0
2014-Oct-03 21:33N 35°31' E 139°45'0 0.0
2014-Oct-03 20:33N 35°31' E 139°45'0 0.0
2014-Oct-03 19:30N 35°31' E 139°45'0 0.0
2014-Oct-03 18:33N 35°31' E 139°45'0 0.0
2014-Oct-03 17:33N 35°31' E 139°45'0 0.0
2014-Oct-03 16:33N 35°31' E 139°45'0 0.0
2014-Oct-03 15:27N 35°31' E 139°45'0 0.0
2014-Oct-03 14:33N 35°31' E 139°45'0 0.0
2014-Oct-03 13:21N 35°31' E 139°45'0 0.0
2014-Oct-03 12:21N 35°31' E 139°45'0 0.0
2014-Oct-03 11:33N 35°31' E 139°45'0 0.0
2014-Oct-03 10:30N 35°31' E 139°45'0 0.0
2014-Oct-03 09:21N 35°31' E 139°45'0 0.0
2014-Oct-03 08:30N 35°31' E 139°45'0 0.0
2014-Oct-03 07:27N 35°31' E 139°45'0 0.0
2014-Oct-03 06:33N 35°31' E 139°45'0 0.0
2014-Oct-03 05:30N 35°31' E 139°45'0 0.0
2014-Oct-03 04:33N 35°31' E 139°45'0 0.0
2014-Oct-03 03:33N 35°31' E 139°45'0 0.0
2014-Oct-03 02:33N 35°31' E 139°45'0 0.0
2014-Oct-03 01:33N 35°31' E 139°45'0 0.0
2014-Oct-03 00:30N 35°31' E 139°45'0 0.0
2014-Oct-02 23:30N 35°31' E 139°45'0 0.1
2014-Oct-02 22:30N 35°31' E 139°45'4 3.7
2014-Oct-02 21:33N 35°28' E 139°42'1 1.3
2014-Oct-02 20:33N 35°27' E 139°42'0 0.0
2014-Oct-02 19:33N 35°27' E 139°42'0 0.0
2014-Oct-02 18:30N 35°27' E 139°42'0 0.0
2014-Oct-02 17:33N 35°27' E 139°42'0 0.0
2014-Oct-02 16:33N 35°27' E 139°42'0 0.0
2014-Oct-02 15:33N 35°27' E 139°42'0 0.0
2014-Oct-02 14:33N 35°27' E 139°42'0 0.0
2014-Oct-02 13:33N 35°27' E 139°42'0 0.0
2014-Oct-02 12:33N 35°27' E 139°42'0 0.0
2014-Oct-02 11:30N 35°27' E 139°42'0 0.0
2014-Oct-02 10:30N 35°27' E 139°42'0 0.1
2014-Oct-02 09:33N 35°27' E 139°42'  
2014-Sep-30 02:07N 35°25' E 139°47'610.1
2014-Sep-30 01:33N 35°19' E 139°44'  

Dump ship's entire track history